sensor_id;sensor_type;location;lat;lon;timestamp;temperature;humidity
913;DHT22;443;51.448;7.028;2023-01-24T00:01:40;10.70;69.10
913;DHT22;443;51.448;7.028;2023-01-24T00:04:08;10.80;69.70
913;DHT22;443;51.448;7.028;2023-01-24T00:06:35;11.00;72.50
913;DHT22;443;51.448;7.028;2023-01-24T00:09:02;11.10;69.10
913;DHT22;443;51.448;7.028;2023-01-24T00:11:28;10.70;66.90
913;DHT22;443;51.448;7.028;2023-01-24T00:13:55;10.70;67.70
913;DHT22;443;51.448;7.028;2023-01-24T00:16:22;10.70;67.60
913;DHT22;443;51.448;7.028;2023-01-24T00:18:49;10.80;67.50
913;DHT22;443;51.448;7.028;2023-01-24T00:21:19;10.70;69.10
913;DHT22;443;51.448;7.028;2023-01-24T00:23:48;11.00;70.70
913;DHT22;443;51.448;7.028;2023-01-24T00:26:15;11.00;72.50
913;DHT22;443;51.448;7.028;2023-01-24T00:28:43;10.90;67.60
913;DHT22;443;51.448;7.028;2023-01-24T00:31:10;10.70;67.00
913;DHT22;443;51.448;7.028;2023-01-24T00:33:37;10.60;67.60
913;DHT22;443;51.448;7.028;2023-01-24T00:36:04;10.50;68.20
913;DHT22;443;51.448;7.028;2023-01-24T00:38:35;10.80;69.80
913;DHT22;443;51.448;7.028;2023-01-24T00:41:02;10.80;68.70
913;DHT22;443;51.448;7.028;2023-01-24T00:43:29;10.70;67.60
913;DHT22;443;51.448;7.028;2023-01-24T00:45:56;10.70;68.90
913;DHT22;443;51.448;7.028;2023-01-24T00:48:23;10.70;69.40
913;DHT22;443;51.448;7.028;2023-01-24T00:50:50;10.80;68.90
913;DHT22;443;51.448;7.028;2023-01-24T00:53:17;10.70;70.30
913;DHT22;443;51.448;7.028;2023-01-24T00:55:47;10.80;68.20
913;DHT22;443;51.448;7.028;2023-01-24T00:58:14;10.70;68.50
913;DHT22;443;51.448;7.028;2023-01-24T01:00:43;10.80;67.70
913;DHT22;443;51.448;7.028;2023-01-24T01:03:12;10.80;71.10
913;DHT22;443;51.448;7.028;2023-01-24T01:05:39;10.90;67.60
913;DHT22;443;51.448;7.028;2023-01-24T01:08:07;10.90;68.10
913;DHT22;443;51.448;7.028;2023-01-24T01:10:34;10.80;68.20
913;DHT22;443;51.448;7.028;2023-01-24T01:13:02;10.90;72.20
913;DHT22;443;51.448;7.028;2023-01-24T01:15:30;10.70;68.00
913;DHT22;443;51.448;7.028;2023-01-24T01:17:57;10.70;67.90
913;DHT22;443;51.448;7.028;2023-01-24T01:20:25;10.70;69.10
913;DHT22;443;51.448;7.028;2023-01-24T01:22:53;10.70;68.60
913;DHT22;443;51.448;7.028;2023-01-24T01:25:20;11.00;70.20
913;DHT22;443;51.448;7.028;2023-01-24T01:27:46;10.80;67.90
913;DHT22;443;51.448;7.028;2023-01-24T01:30:15;10.80;70.70
913;DHT22;443;51.448;7.028;2023-01-24T01:32:42;10.70;67.30
913;DHT22;443;51.448;7.028;2023-01-24T01:35:09;10.60;66.90
913;DHT22;443;51.448;7.028;2023-01-24T01:37:36;10.50;67.60
913;DHT22;443;51.448;7.028;2023-01-24T01:40:03;10.60;69.00
913;DHT22;443;51.448;7.028;2023-01-24T01:42:44;10.60;67.90
913;DHT22;443;51.448;7.028;2023-01-24T01:45:34;10.70;68.20
913;DHT22;443;51.448;7.028;2023-01-24T01:48:04;10.60;66.90
913;DHT22;443;51.448;7.028;2023-01-24T01:50:36;10.80;69.80
913;DHT22;443;51.448;7.028;2023-01-24T01:53:05;10.70;67.00
913;DHT22;443;51.448;7.028;2023-01-24T01:55:33;11.20;73.30
913;DHT22;443;51.448;7.028;2023-01-24T01:58:03;11.10;67.50
913;DHT22;443;51.448;7.028;2023-01-24T02:00:32;10.90;69.30
913;DHT22;443;51.448;7.028;2023-01-24T02:03:04;10.80;68.20
913;DHT22;443;51.448;7.028;2023-01-24T02:05:52;11.10;72.70
913;DHT22;443;51.448;7.028;2023-01-24T02:08:21;10.90;67.00
913;DHT22;443;51.448;7.028;2023-01-24T02:10:50;10.70;68.70
913;DHT22;443;51.448;7.028;2023-01-24T02:13:35;10.50;66.80
913;DHT22;443;51.448;7.028;2023-01-24T02:16:06;10.50;68.70
913;DHT22;443;51.448;7.028;2023-01-24T02:18:35;10.50;67.60
913;DHT22;443;51.448;7.028;2023-01-24T02:21:04;10.70;68.00
913;DHT22;443;51.448;7.028;2023-01-24T02:23:38;10.80;72.10
913;DHT22;443;51.448;7.028;2023-01-24T02:26:10;10.60;66.30
913;DHT22;443;51.448;7.028;2023-01-24T02:28:37;10.70;66.70
913;DHT22;443;51.448;7.028;2023-01-24T02:31:05;10.60;69.00
913;DHT22;443;51.448;7.028;2023-01-24T02:33:33;10.70;67.90
913;DHT22;443;51.448;7.028;2023-01-24T02:36:15;10.50;66.50
913;DHT22;443;51.448;7.028;2023-01-24T02:38:46;10.70;68.00
913;DHT22;443;51.448;7.028;2023-01-24T02:41:16;10.70;69.20
913;DHT22;443;51.448;7.028;2023-01-24T02:43:47;10.90;72.40
913;DHT22;443;51.448;7.028;2023-01-24T02:46:15;11.00;68.40
913;DHT22;443;51.448;7.028;2023-01-24T02:48:41;10.80;69.70
913;DHT22;443;51.448;7.028;2023-01-24T02:51:08;11.00;68.50
913;DHT22;443;51.448;7.028;2023-01-24T02:53:52;10.90;66.80
913;DHT22;443;51.448;7.028;2023-01-24T02:56:20;10.80;68.50
913;DHT22;443;51.448;7.028;2023-01-24T02:59:05;10.80;69.50
913;DHT22;443;51.448;7.028;2023-01-24T03:01:32;10.80;66.80
913;DHT22;443;51.448;7.028;2023-01-24T03:03:58;10.50;66.50
913;DHT22;443;51.448;7.028;2023-01-24T03:06:25;10.50;68.50
913;DHT22;443;51.448;7.028;2023-01-24T03:08:52;10.80;71.70
913;DHT22;443;51.448;7.028;2023-01-24T03:11:21;10.90;69.50
913;DHT22;443;51.448;7.028;2023-01-24T03:13:47;10.80;69.20
913;DHT22;443;51.448;7.028;2023-01-24T03:16:32;10.90;67.90
913;DHT22;443;51.448;7.028;2023-01-24T03:19:16;10.70;68.60
913;DHT22;443;51.448;7.028;2023-01-24T03:22:00;10.50;66.00
913;DHT22;443;51.448;7.028;2023-01-24T03:24:44;10.40;68.00
913;DHT22;443;51.448;7.028;2023-01-24T03:27:30;10.40;68.40
913;DHT22;443;51.448;7.028;2023-01-24T03:30:14;10.60;68.80
913;DHT22;443;51.448;7.028;2023-01-24T03:32:59;10.50;68.00
913;DHT22;443;51.448;7.028;2023-01-24T03:35:43;10.90;71.90
913;DHT22;443;51.448;7.028;2023-01-24T03:38:19;10.70;68.70
913;DHT22;443;51.448;7.028;2023-01-24T03:41:03;10.60;69.60
913;DHT22;443;51.448;7.028;2023-01-24T03:43:31;10.50;66.70
913;DHT22;443;51.448;7.028;2023-01-24T03:45:58;10.30;65.80
913;DHT22;443;51.448;7.028;2023-01-24T03:48:25;10.40;68.60
913;DHT22;443;51.448;7.028;2023-01-24T03:50:59;10.40;67.80
913;DHT22;443;51.448;7.028;2023-01-24T03:53:43;10.40;69.10
913;DHT22;443;51.448;7.028;2023-01-24T03:56:10;10.60;71.10
913;DHT22;443;51.448;7.028;2023-01-24T03:58:38;10.40;66.50
913;DHT22;443;51.448;7.028;2023-01-24T04:01:05;10.40;69.90
913;DHT22;443;51.448;7.028;2023-01-24T04:03:32;10.70;71.30
913;DHT22;443;51.448;7.028;2023-01-24T04:05:59;10.60;68.30
913;DHT22;443;51.448;7.028;2023-01-24T04:08:26;10.50;66.70
913;DHT22;443;51.448;7.028;2023-01-24T04:10:55;10.60;69.90
913;DHT22;443;51.448;7.028;2023-01-24T04:13:22;10.50;66.50
913;DHT22;443;51.448;7.028;2023-01-24T04:15:51;10.30;66.00
913;DHT22;443;51.448;7.028;2023-01-24T04:18:17;10.30;67.20
913;DHT22;443;51.448;7.028;2023-01-24T04:20:44;10.30;71.10
913;DHT22;443;51.448;7.028;2023-01-24T04:23:11;10.30;67.10
913;DHT22;443;51.448;7.028;2023-01-24T04:25:38;10.20;66.70
913;DHT22;443;51.448;7.028;2023-01-24T04:28:05;10.10;67.10
913;DHT22;443;51.448;7.028;2023-01-24T04:30:32;10.10;67.40
913;DHT22;443;51.448;7.028;2023-01-24T04:33:00;10.10;67.20
913;DHT22;443;51.448;7.028;2023-01-24T04:35:28;10.10;67.00
913;DHT22;443;51.448;7.028;2023-01-24T04:37:59;10.20;68.30
913;DHT22;443;51.448;7.028;2023-01-24T04:40:26;10.20;68.60
913;DHT22;443;51.448;7.028;2023-01-24T04:42:55;10.30;68.40
913;DHT22;443;51.448;7.028;2023-01-24T04:45:22;10.20;67.70
913;DHT22;443;51.448;7.028;2023-01-24T04:47:49;10.10;66.60
913;DHT22;443;51.448;7.028;2023-01-24T04:50:17;10.20;67.60
913;DHT22;443;51.448;7.028;2023-01-24T04:52:44;10.20;68.60
913;DHT22;443;51.448;7.028;2023-01-24T04:55:11;10.20;67.20
913;DHT22;443;51.448;7.028;2023-01-24T04:57:38;10.10;66.40
913;DHT22;443;51.448;7.028;2023-01-24T05:00:06;10.20;68.10
913;DHT22;443;51.448;7.028;2023-01-24T05:02:34;10.20;66.80
913;DHT22;443;51.448;7.028;2023-01-24T05:05:03;10.10;66.60
913;DHT22;443;51.448;7.028;2023-01-24T05:07:31;10.20;66.90
913;DHT22;443;51.448;7.028;2023-01-24T05:09:58;10.30;69.00
913;DHT22;443;51.448;7.028;2023-01-24T05:12:25;10.20;66.50
913;DHT22;443;51.448;7.028;2023-01-24T05:14:51;10.10;66.90
913;DHT22;443;51.448;7.028;2023-01-24T05:17:18;10.00;67.30
913;DHT22;443;51.448;7.028;2023-01-24T05:19:45;10.00;66.70
913;DHT22;443;51.448;7.028;2023-01-24T05:22:12;9.90;68.60
913;DHT22;443;51.448;7.028;2023-01-24T05:24:40;9.90;68.60
913;DHT22;443;51.448;7.028;2023-01-24T05:27:07;10.00;67.90
913;DHT22;443;51.448;7.028;2023-01-24T05:29:34;10.00;67.40
913;DHT22;443;51.448;7.028;2023-01-24T05:32:00;10.00;67.70
913;DHT22;443;51.448;7.028;2023-01-24T05:34:27;9.90;68.40
913;DHT22;443;51.448;7.028;2023-01-24T05:36:54;9.90;68.80
913;DHT22;443;51.448;7.028;2023-01-24T05:39:21;10.10;67.40
913;DHT22;443;51.448;7.028;2023-01-24T05:41:49;10.10;66.90
913;DHT22;443;51.448;7.028;2023-01-24T05:44:16;10.00;67.20
913;DHT22;443;51.448;7.028;2023-01-24T05:46:42;10.10;67.60
913;DHT22;443;51.448;7.028;2023-01-24T05:49:10;10.00;67.40
913;DHT22;443;51.448;7.028;2023-01-24T05:51:36;10.00;67.90
913;DHT22;443;51.448;7.028;2023-01-24T05:54:03;10.10;67.70
913;DHT22;443;51.448;7.028;2023-01-24T05:56:30;10.10;67.70
913;DHT22;443;51.448;7.028;2023-01-24T05:58:58;10.10;67.80
913;DHT22;443;51.448;7.028;2023-01-24T06:01:26;10.10;67.60
913;DHT22;443;51.448;7.028;2023-01-24T06:03:53;10.20;68.30
913;DHT22;443;51.448;7.028;2023-01-24T06:06:22;10.10;67.70
913;DHT22;443;51.448;7.028;2023-01-24T06:08:49;10.10;67.60
913;DHT22;443;51.448;7.028;2023-01-24T06:11:18;10.20;67.60
913;DHT22;443;51.448;7.028;2023-01-24T06:13:46;10.20;68.20
913;DHT22;443;51.448;7.028;2023-01-24T06:16:15;10.30;68.80
913;DHT22;443;51.448;7.028;2023-01-24T06:18:43;10.30;67.80
913;DHT22;443;51.448;7.028;2023-01-24T06:21:18;10.40;68.20
913;DHT22;443;51.448;7.028;2023-01-24T06:23:48;10.40;67.90
913;DHT22;443;51.448;7.028;2023-01-24T06:26:15;10.40;68.60
913;DHT22;443;51.448;7.028;2023-01-24T06:28:42;10.50;67.70
913;DHT22;443;51.448;7.028;2023-01-24T06:31:21;10.50;68.50
913;DHT22;443;51.448;7.028;2023-01-24T06:34:05;10.40;67.30
913;DHT22;443;51.448;7.028;2023-01-24T06:36:45;10.40;67.30
913;DHT22;443;51.448;7.028;2023-01-24T06:39:17;10.50;69.00
913;DHT22;443;51.448;7.028;2023-01-24T06:41:44;10.60;67.40
913;DHT22;443;51.448;7.028;2023-01-24T06:44:11;10.50;67.30
913;DHT22;443;51.448;7.028;2023-01-24T06:46:39;10.40;67.20
913;DHT22;443;51.448;7.028;2023-01-24T06:49:06;10.50;67.60
913;DHT22;443;51.448;7.028;2023-01-24T06:51:33;10.50;68.10
913;DHT22;443;51.448;7.028;2023-01-24T06:54:00;10.50;69.30
913;DHT22;443;51.448;7.028;2023-01-24T06:56:27;10.60;67.90
913;DHT22;443;51.448;7.028;2023-01-24T06:58:54;10.50;67.90
913;DHT22;443;51.448;7.028;2023-01-24T07:01:20;10.50;67.20
913;DHT22;443;51.448;7.028;2023-01-24T07:03:49;10.40;67.70
913;DHT22;443;51.448;7.028;2023-01-24T07:06:15;10.40;68.30
913;DHT22;443;51.448;7.028;2023-01-24T07:08:42;10.50;67.90
913;DHT22;443;51.448;7.028;2023-01-24T07:11:09;10.50;69.50
913;DHT22;443;51.448;7.028;2023-01-24T07:13:35;10.50;67.80
913;DHT22;443;51.448;7.028;2023-01-24T07:16:02;10.60;68.50
913;DHT22;443;51.448;7.028;2023-01-24T07:18:30;10.50;67.60
913;DHT22;443;51.448;7.028;2023-01-24T07:20:58;10.40;68.00
913;DHT22;443;51.448;7.028;2023-01-24T07:23:26;10.50;68.30
913;DHT22;443;51.448;7.028;2023-01-24T07:25:55;10.40;68.30
913;DHT22;443;51.448;7.028;2023-01-24T07:28:22;10.40;68.60
913;DHT22;443;51.448;7.028;2023-01-24T07:30:50;10.50;70.20
913;DHT22;443;51.448;7.028;2023-01-24T07:33:18;10.60;67.70
913;DHT22;443;51.448;7.028;2023-01-24T07:35:45;10.60;70.20
913;DHT22;443;51.448;7.028;2023-01-24T07:38:13;10.70;70.30
913;DHT22;443;51.448;7.028;2023-01-24T07:40:40;10.60;69.20
913;DHT22;443;51.448;7.028;2023-01-24T07:43:07;10.50;67.60
913;DHT22;443;51.448;7.028;2023-01-24T07:45:34;10.40;67.50
913;DHT22;443;51.448;7.028;2023-01-24T07:48:04;10.50;68.30
913;DHT22;443;51.448;7.028;2023-01-24T07:50:31;10.40;67.70
913;DHT22;443;51.448;7.028;2023-01-24T07:52:58;10.50;70.60
913;DHT22;443;51.448;7.028;2023-01-24T07:55:27;10.90;73.10
913;DHT22;443;51.448;7.028;2023-01-24T07:57:58;10.80;66.70
913;DHT22;443;51.448;7.028;2023-01-24T08:00:25;10.60;67.90
913;DHT22;443;51.448;7.028;2023-01-24T08:02:52;10.70;68.00
913;DHT22;443;51.448;7.028;2023-01-24T08:05:19;10.80;68.90
913;DHT22;443;51.448;7.028;2023-01-24T08:07:45;10.60;66.40
913;DHT22;443;51.448;7.028;2023-01-24T08:10:12;10.50;68.30
913;DHT22;443;51.448;7.028;2023-01-24T08:12:40;10.50;67.60
913;DHT22;443;51.448;7.028;2023-01-24T08:15:08;10.50;68.30
913;DHT22;443;51.448;7.028;2023-01-24T08:17:35;10.40;67.10
913;DHT22;443;51.448;7.028;2023-01-24T08:20:03;10.30;67.30
913;DHT22;443;51.448;7.028;2023-01-24T08:22:29;10.60;70.50
913;DHT22;443;51.448;7.028;2023-01-24T08:24:56;10.70;68.30
913;DHT22;443;51.448;7.028;2023-01-24T08:27:23;10.80;68.30
913;DHT22;443;51.448;7.028;2023-01-24T08:29:51;10.80;68.50
913;DHT22;443;51.448;7.028;2023-01-24T08:32:18;10.50;67.20
913;DHT22;443;51.448;7.028;2023-01-24T08:34:45;10.60;70.60
913;DHT22;443;51.448;7.028;2023-01-24T08:37:12;10.60;68.20
913;DHT22;443;51.448;7.028;2023-01-24T08:39:38;10.60;67.80
913;DHT22;443;51.448;7.028;2023-01-24T08:42:05;11.00;72.20
913;DHT22;443;51.448;7.028;2023-01-24T08:44:34;10.80;68.40
913;DHT22;443;51.448;7.028;2023-01-24T08:47:02;10.80;67.70
913;DHT22;443;51.448;7.028;2023-01-24T08:49:28;10.60;66.70
913;DHT22;443;51.448;7.028;2023-01-24T08:51:55;10.50;66.70
913;DHT22;443;51.448;7.028;2023-01-24T08:54:25;10.60;68.10
913;DHT22;443;51.448;7.028;2023-01-24T08:56:51;10.90;73.80
913;DHT22;443;51.448;7.028;2023-01-24T08:59:18;10.70;66.90
913;DHT22;443;51.448;7.028;2023-01-24T09:01:45;10.60;67.10
913;DHT22;443;51.448;7.028;2023-01-24T09:04:13;10.60;69.00
913;DHT22;443;51.448;7.028;2023-01-24T09:06:40;10.70;68.20
913;DHT22;443;51.448;7.028;2023-01-24T09:09:07;10.60;67.30
913;DHT22;443;51.448;7.028;2023-01-24T09:11:33;10.50;67.70
913;DHT22;443;51.448;7.028;2023-01-24T09:14:00;10.50;67.40
913;DHT22;443;51.448;7.028;2023-01-24T09:16:27;10.70;69.90
913;DHT22;443;51.448;7.028;2023-01-24T09:18:54;10.70;68.50
913;DHT22;443;51.448;7.028;2023-01-24T09:21:22;11.10;71.40
913;DHT22;443;51.448;7.028;2023-01-24T09:23:49;10.90;69.10
913;DHT22;443;51.448;7.028;2023-01-24T09:26:16;11.00;71.20
913;DHT22;443;51.448;7.028;2023-01-24T09:28:43;10.90;70.10
913;DHT22;443;51.448;7.028;2023-01-24T09:31:09;10.80;67.20
913;DHT22;443;51.448;7.028;2023-01-24T09:33:38;10.70;66.60
913;DHT22;443;51.448;7.028;2023-01-24T09:36:05;10.60;68.30
913;DHT22;443;51.448;7.028;2023-01-24T09:38:34;10.70;67.20
913;DHT22;443;51.448;7.028;2023-01-24T09:41:08;10.60;67.90
913;DHT22;443;51.448;7.028;2023-01-24T09:43:49;10.70;68.00
913;DHT22;443;51.448;7.028;2023-01-24T09:46:31;10.60;67.30
913;DHT22;443;51.448;7.028;2023-01-24T09:49:09;10.60;67.40
913;DHT22;443;51.448;7.028;2023-01-24T09:51:40;10.70;70.40
913;DHT22;443;51.448;7.028;2023-01-24T09:54:15;10.90;67.70
913;DHT22;443;51.448;7.028;2023-01-24T09:56:45;10.80;68.10
913;DHT22;443;51.448;7.028;2023-01-24T09:59:19;11.00;69.20
913;DHT22;443;51.448;7.028;2023-01-24T10:01:47;11.00;68.10
913;DHT22;443;51.448;7.028;2023-01-24T10:04:16;10.80;67.80
913;DHT22;443;51.448;7.028;2023-01-24T10:09:39;10.80;66.20
913;DHT22;443;51.448;7.028;2023-01-24T10:12:16;10.80;67.50
913;DHT22;443;51.448;7.028;2023-01-24T10:14:54;10.80;68.30
913;DHT22;443;51.448;7.028;2023-01-24T10:17:43;11.00;71.20
913;DHT22;443;51.448;7.028;2023-01-24T10:20:30;10.90;68.30
913;DHT22;443;51.448;7.028;2023-01-24T10:23:09;10.80;69.10
913;DHT22;443;51.448;7.028;2023-01-24T10:25:57;10.80;66.80
913;DHT22;443;51.448;7.028;2023-01-24T10:28:28;10.90;70.00
913;DHT22;443;51.448;7.028;2023-01-24T10:31:02;10.90;69.70
913;DHT22;443;51.448;7.028;2023-01-24T10:33:34;11.00;67.30
913;DHT22;443;51.448;7.028;2023-01-24T10:36:08;10.70;65.60
913;DHT22;443;51.448;7.028;2023-01-24T10:38:37;10.60;66.80
913;DHT22;443;51.448;7.028;2023-01-24T10:41:20;10.70;67.70
913;DHT22;443;51.448;7.028;2023-01-24T10:43:54;10.70;67.00
913;DHT22;443;51.448;7.028;2023-01-24T10:46:49;10.70;67.20
913;DHT22;443;51.448;7.028;2023-01-24T10:49:20;10.70;67.60
913;DHT22;443;51.448;7.028;2023-01-24T10:52:11;11.00;70.10
913;DHT22;443;51.448;7.028;2023-01-24T10:54:43;11.00;68.60
913;DHT22;443;51.448;7.028;2023-01-24T10:57:33;10.90;67.10
913;DHT22;443;51.448;7.028;2023-01-24T11:00:05;10.90;69.60
913;DHT22;443;51.448;7.028;2023-01-24T11:02:32;10.80;69.00
913;DHT22;443;51.448;7.028;2023-01-24T11:05:02;10.80;67.70
913;DHT22;443;51.448;7.028;2023-01-24T11:07:31;10.70;67.40
913;DHT22;443;51.448;7.028;2023-01-24T11:10:00;10.80;67.60
913;DHT22;443;51.448;7.028;2023-01-24T11:12:27;10.80;67.00
913;DHT22;443;51.448;7.028;2023-01-24T11:14:55;10.70;66.20
913;DHT22;443;51.448;7.028;2023-01-24T11:17:31;10.80;68.70
913;DHT22;443;51.448;7.028;2023-01-24T11:20:02;10.90;67.80
913;DHT22;443;51.448;7.028;2023-01-24T11:22:29;10.80;66.30
913;DHT22;443;51.448;7.028;2023-01-24T11:25:02;10.70;66.10
913;DHT22;443;51.448;7.028;2023-01-24T11:27:29;10.80;67.60
913;DHT22;443;51.448;7.028;2023-01-24T11:30:07;10.90;67.30
913;DHT22;443;51.448;7.028;2023-01-24T11:32:40;11.00;69.20
913;DHT22;443;51.448;7.028;2023-01-24T11:35:15;11.00;67.60
913;DHT22;443;51.448;7.028;2023-01-24T11:38:10;10.90;68.20
913;DHT22;443;51.448;7.028;2023-01-24T11:40:42;11.00;70.90
913;DHT22;443;51.448;7.028;2023-01-24T11:43:23;10.90;65.80
913;DHT22;443;51.448;7.028;2023-01-24T11:46:05;10.80;67.40
913;DHT22;443;51.448;7.028;2023-01-24T11:48:42;10.90;68.00
913;DHT22;443;51.448;7.028;2023-01-24T11:51:18;11.00;67.00
913;DHT22;443;51.448;7.028;2023-01-24T11:54:15;10.80;66.10
913;DHT22;443;51.448;7.028;2023-01-24T11:56:52;10.70;66.00
913;DHT22;443;51.448;7.028;2023-01-24T11:59:35;10.80;68.20
913;DHT22;443;51.448;7.028;2023-01-24T12:02:20;10.80;66.40
913;DHT22;443;51.448;7.028;2023-01-24T12:05:14;10.80;67.50
913;DHT22;443;51.448;7.028;2023-01-24T12:07:53;10.80;67.10
913;DHT22;443;51.448;7.028;2023-01-24T12:10:26;10.80;66.70
913;DHT22;443;51.448;7.028;2023-01-24T12:13:02;10.90;67.90
913;DHT22;443;51.448;7.028;2023-01-24T12:15:38;10.80;66.30
913;DHT22;443;51.448;7.028;2023-01-24T12:18:22;10.90;69.80
913;DHT22;443;51.448;7.028;2023-01-24T12:20:59;10.80;66.50
913;DHT22;443;51.448;7.028;2023-01-24T12:23:34;10.80;67.60
913;DHT22;443;51.448;7.028;2023-01-24T12:26:07;10.80;67.70
913;DHT22;443;51.448;7.028;2023-01-24T12:28:41;11.00;67.20
913;DHT22;443;51.448;7.028;2023-01-24T12:31:13;10.90;66.80
913;DHT22;443;51.448;7.028;2023-01-24T12:33:48;10.90;66.10
913;DHT22;443;51.448;7.028;2023-01-24T12:36:25;10.90;67.60
913;DHT22;443;51.448;7.028;2023-01-24T12:38:58;10.80;66.20
913;DHT22;443;51.448;7.028;2023-01-24T12:41:30;10.80;66.20
913;DHT22;443;51.448;7.028;2023-01-24T12:44:03;11.00;68.80
913;DHT22;443;51.448;7.028;2023-01-24T12:46:37;11.20;67.00
913;DHT22;443;51.448;7.028;2023-01-24T12:49:16;11.00;66.50
913;DHT22;443;51.448;7.028;2023-01-24T12:51:51;11.00;66.80
913;DHT22;443;51.448;7.028;2023-01-24T12:54:27;11.20;70.30
913;DHT22;443;51.448;7.028;2023-01-24T12:56:59;11.00;66.30
913;DHT22;443;51.448;7.028;2023-01-24T12:59:29;10.90;66.50
913;DHT22;443;51.448;7.028;2023-01-24T13:02:15;10.90;66.90
913;DHT22;443;51.448;7.028;2023-01-24T13:04:50;10.70;65.70
913;DHT22;443;51.448;7.028;2023-01-24T13:07:31;11.00;71.30
913;DHT22;443;51.448;7.028;2023-01-24T13:10:05;11.00;68.20
913;DHT22;443;51.448;7.028;2023-01-24T13:12:36;10.90;66.60
913;DHT22;443;51.448;7.028;2023-01-24T13:15:09;11.00;67.50
913;DHT22;443;51.448;7.028;2023-01-24T13:18:00;11.00;69.90
913;DHT22;443;51.448;7.028;2023-01-24T13:21:01;10.90;65.50
913;DHT22;443;51.448;7.028;2023-01-24T13:23:46;10.80;66.90
913;DHT22;443;51.448;7.028;2023-01-24T13:26:41;10.90;65.30
913;DHT22;443;51.448;7.028;2023-01-24T13:29:21;10.80;67.00
913;DHT22;443;51.448;7.028;2023-01-24T13:31:58;10.80;65.90
913;DHT22;443;51.448;7.028;2023-01-24T13:34:31;10.70;66.50
913;DHT22;443;51.448;7.028;2023-01-24T13:37:02;10.90;67.00
913;DHT22;443;51.448;7.028;2023-01-24T13:39:32;10.80;65.70
913;DHT22;443;51.448;7.028;2023-01-24T13:42:19;10.70;65.30
913;DHT22;443;51.448;7.028;2023-01-24T13:44:46;10.90;67.70
913;DHT22;443;51.448;7.028;2023-01-24T13:47:34;10.90;65.90
913;DHT22;443;51.448;7.028;2023-01-24T13:50:15;10.90;66.60
913;DHT22;443;51.448;7.028;2023-01-24T13:52:50;11.00;66.90
913;DHT22;443;51.448;7.028;2023-01-24T13:58:27;10.80;65.50
913;DHT22;443;51.448;7.028;2023-01-24T14:00:57;10.70;66.10
913;DHT22;443;51.448;7.028;2023-01-24T14:03:27;10.70;66.20
913;DHT22;443;51.448;7.028;2023-01-24T14:06:03;10.70;66.30
913;DHT22;443;51.448;7.028;2023-01-24T14:08:44;10.60;65.50
913;DHT22;443;51.448;7.028;2023-01-24T14:11:28;10.60;65.90
913;DHT22;443;51.448;7.028;2023-01-24T14:14:00;10.70;66.90
913;DHT22;443;51.448;7.028;2023-01-24T14:19:39;10.80;67.50
913;DHT22;443;51.448;7.028;2023-01-24T14:22:19;10.80;66.30
913;DHT22;443;51.448;7.028;2023-01-24T14:24:56;10.70;65.70
913;DHT22;443;51.448;7.028;2023-01-24T14:27:34;10.70;66.40
913;DHT22;443;51.448;7.028;2023-01-24T14:30:26;10.70;66.60
913;DHT22;443;51.448;7.028;2023-01-24T14:32:57;10.90;67.10
913;DHT22;443;51.448;7.028;2023-01-24T14:35:28;11.00;68.40
913;DHT22;443;51.448;7.028;2023-01-24T14:38:11;11.00;66.30
913;DHT22;443;51.448;7.028;2023-01-24T14:40:41;10.90;66.40
913;DHT22;443;51.448;7.028;2023-01-24T14:43:09;10.80;65.50
913;DHT22;443;51.448;7.028;2023-01-24T14:45:37;10.70;65.60
913;DHT22;443;51.448;7.028;2023-01-24T14:48:07;10.70;66.60
913;DHT22;443;51.448;7.028;2023-01-24T14:50:36;10.70;66.10
913;DHT22;443;51.448;7.028;2023-01-24T14:53:23;10.60;64.90
913;DHT22;443;51.448;7.028;2023-01-24T14:55:52;10.70;66.10
913;DHT22;443;51.448;7.028;2023-01-24T14:58:21;10.80;67.50
913;DHT22;443;51.448;7.028;2023-01-24T15:00:50;10.80;67.00
913;DHT22;443;51.448;7.028;2023-01-24T15:03:20;10.70;65.30
913;DHT22;443;51.448;7.028;2023-01-24T15:05:53;10.70;67.20
913;DHT22;443;51.448;7.028;2023-01-24T15:08:21;10.80;67.30
913;DHT22;443;51.448;7.028;2023-01-24T15:11:00;10.70;66.10
913;DHT22;443;51.448;7.028;2023-01-24T15:13:34;10.70;66.50
913;DHT22;443;51.448;7.028;2023-01-24T15:16:03;10.70;67.20
913;DHT22;443;51.448;7.028;2023-01-24T15:18:39;10.70;66.60
913;DHT22;443;51.448;7.028;2023-01-24T15:21:16;10.80;68.10
913;DHT22;443;51.448;7.028;2023-01-24T15:23:48;10.80;67.20
913;DHT22;443;51.448;7.028;2023-01-24T15:26:23;10.90;67.00
913;DHT22;443;51.448;7.028;2023-01-24T15:28:50;10.70;65.60
913;DHT22;443;51.448;7.028;2023-01-24T15:31:19;10.70;66.50
913;DHT22;443;51.448;7.028;2023-01-24T15:33:53;10.70;66.60
913;DHT22;443;51.448;7.028;2023-01-24T15:36:23;10.60;65.60
913;DHT22;443;51.448;7.028;2023-01-24T15:38:52;10.60;66.30
913;DHT22;443;51.448;7.028;2023-01-24T15:41:22;10.60;66.30
913;DHT22;443;51.448;7.028;2023-01-24T15:43:59;10.60;65.90
913;DHT22;443;51.448;7.028;2023-01-24T15:46:31;10.60;66.80
913;DHT22;443;51.448;7.028;2023-01-24T15:49:19;10.70;68.30
913;DHT22;443;51.448;7.028;2023-01-24T15:52:03;10.70;65.90
913;DHT22;443;51.448;7.028;2023-01-24T15:54:31;10.70;66.70
913;DHT22;443;51.448;7.028;2023-01-24T15:57:03;10.60;66.00
913;DHT22;443;51.448;7.028;2023-01-24T15:59:30;10.50;65.40
913;DHT22;443;51.448;7.028;2023-01-24T16:01:59;10.50;67.60
913;DHT22;443;51.448;7.028;2023-01-24T16:04:26;10.80;67.40
913;DHT22;443;51.448;7.028;2023-01-24T16:06:53;10.60;65.70
913;DHT22;443;51.448;7.028;2023-01-24T16:09:19;10.70;67.40
913;DHT22;443;51.448;7.028;2023-01-24T16:11:47;10.60;66.40
913;DHT22;443;51.448;7.028;2023-01-24T16:14:17;10.60;66.60
913;DHT22;443;51.448;7.028;2023-01-24T16:16:45;10.50;66.30
913;DHT22;443;51.448;7.028;2023-01-24T16:19:15;10.70;67.60
913;DHT22;443;51.448;7.028;2023-01-24T16:21:42;10.60;66.80
913;DHT22;443;51.448;7.028;2023-01-24T16:24:09;10.60;66.10
913;DHT22;443;51.448;7.028;2023-01-24T16:26:38;10.60;67.60
913;DHT22;443;51.448;7.028;2023-01-24T16:29:12;10.70;67.10
913;DHT22;443;51.448;7.028;2023-01-24T16:31:41;10.60;66.40
913;DHT22;443;51.448;7.028;2023-01-24T16:34:07;10.70;67.20
913;DHT22;443;51.448;7.028;2023-01-24T16:36:34;11.00;71.30
913;DHT22;443;51.448;7.028;2023-01-24T16:39:01;10.80;65.60
913;DHT22;443;51.448;7.028;2023-01-24T16:41:28;10.70;65.60
913;DHT22;443;51.448;7.028;2023-01-24T16:43:55;10.60;66.80
913;DHT22;443;51.448;7.028;2023-01-24T16:46:22;10.50;65.70
913;DHT22;443;51.448;7.028;2023-01-24T16:48:50;10.70;67.40
913;DHT22;443;51.448;7.028;2023-01-24T16:51:18;10.60;66.60
913;DHT22;443;51.448;7.028;2023-01-24T16:53:45;10.60;66.90
913;DHT22;443;51.448;7.028;2023-01-24T16:56:12;10.60;67.20
913;DHT22;443;51.448;7.028;2023-01-24T16:58:39;10.50;65.80
913;DHT22;443;51.448;7.028;2023-01-24T17:01:06;10.50;65.50
913;DHT22;443;51.448;7.028;2023-01-24T17:03:34;10.40;65.40
913;DHT22;443;51.448;7.028;2023-01-24T17:06:04;10.40;66.30
913;DHT22;443;51.448;7.028;2023-01-24T17:08:31;10.50;66.20
913;DHT22;443;51.448;7.028;2023-01-24T17:11:02;10.50;66.50